createdAt,value
2019-03-26T00:00:36.686Z,54.06
2019-03-26T00:03:09.208Z,54.18
2019-03-26T00:05:41.705Z,54.15
2019-03-26T00:08:14.137Z,54.22
2019-03-26T00:10:46.572Z,54.17
2019-03-26T00:13:19.029Z,54.19
2019-03-26T00:15:51.859Z,54.20
2019-03-26T00:18:24.307Z,54.28
2019-03-26T00:20:57.322Z,54.24
2019-03-26T00:23:29.994Z,54.22
2019-03-26T00:26:02.525Z,54.25
2019-03-26T00:28:34.941Z,54.25
2019-03-26T00:31:07.366Z,54.30
2019-03-26T00:33:40.122Z,54.34
2019-03-26T00:36:12.646Z,54.38
2019-03-26T00:38:45.142Z,54.36
2019-03-26T00:41:17.681Z,54.35
2019-03-26T00:43:50.099Z,54.31
2019-03-26T00:46:22.534Z,54.36
2019-03-26T00:48:55.127Z,54.41
2019-03-26T00:51:27.589Z,54.48
2019-03-26T00:54:00.099Z,54.46
2019-03-26T00:56:32.953Z,54.44
2019-03-26T00:59:05.386Z,54.39
2019-03-26T01:01:38.088Z,54.34
2019-03-26T01:04:10.620Z,54.32
2019-03-26T01:06:43.052Z,54.38
2019-03-26T01:09:15.475Z,54.42
2019-03-26T01:11:47.897Z,54.40
2019-03-26T01:14:20.380Z,54.43
2019-03-26T01:16:53.031Z,54.40
2019-03-26T01:19:25.497Z,54.41
2019-03-26T01:21:57.969Z,54.42
2019-03-26T01:24:30.409Z,54.43
2019-03-26T01:27:02.825Z,54.53
2019-03-26T01:29:35.227Z,54.64
2019-03-26T01:32:07.980Z,54.82
2019-03-26T01:34:45.875Z,54.98
2019-03-26T01:37:14.626Z,55.17
2019-03-26T01:39:47.200Z,55.30
2019-03-26T01:42:19.679Z,55.40
2019-03-26T01:44:52.126Z,55.42
2019-03-26T01:47:24.714Z,55.46
2019-03-26T01:49:57.203Z,55.54
2019-03-26T01:52:29.739Z,55.65
2019-03-26T01:55:02.256Z,55.70
2019-03-26T01:57:34.741Z,55.76
2019-03-26T02:00:07.702Z,55.79
2019-03-26T02:02:40.228Z,55.79
2019-03-26T02:05:12.643Z,55.87
2019-03-26T02:07:45.533Z,55.88
2019-03-26T02:10:18.163Z,55.92
2019-03-26T02:12:50.879Z,55.94
2019-03-26T02:15:31.243Z,55.93
2019-03-26T02:18:04.322Z,56.05
2019-03-26T02:20:36.794Z,56.10
2019-03-26T02:23:09.315Z,56.10
2019-03-26T02:25:41.816Z,56.11
2019-03-26T02:28:14.396Z,56.06
2019-03-26T02:30:46.797Z,56.02
2019-03-26T02:33:19.326Z,55.99
2019-03-26T02:35:51.816Z,55.99
2019-03-26T02:38:24.364Z,55.97
2019-03-26T02:40:56.777Z,55.92
2019-03-26T02:43:29.151Z,55.88
2019-03-26T02:46:01.839Z,55.88
2019-03-26T02:48:34.287Z,55.94
2019-03-26T02:51:06.977Z,55.95
2019-03-26T02:53:39.433Z,56.07
2019-03-26T02:56:11.943Z,56.11
2019-03-26T02:58:45.509Z,56.18
2019-03-26T03:01:18.011Z,56.20
2019-03-26T03:03:50.469Z,56.23
2019-03-26T03:06:22.962Z,56.28
2019-03-26T03:08:55.383Z,56.27
2019-03-26T03:11:27.814Z,56.45
2019-03-26T03:14:00.265Z,56.49
2019-03-26T03:16:32.767Z,56.54
2019-03-26T03:19:05.159Z,56.56
2019-03-26T03:21:37.714Z,56.56
2019-03-26T03:24:10.269Z,56.49
2019-03-26T03:26:42.675Z,56.42
2019-03-26T03:29:15.079Z,56.34
2019-03-26T03:36:52.270Z,56.32
2019-03-26T03:39:24.716Z,56.38
2019-03-26T03:41:57.136Z,56.42
2019-03-26T03:44:29.661Z,56.50
2019-03-26T03:47:04.253Z,56.53
2019-03-26T03:49:36.889Z,56.49
2019-03-26T03:52:10.522Z,56.42
2019-03-26T03:54:45.879Z,56.40
2019-03-26T03:57:20.058Z,56.31
2019-03-26T03:59:53.350Z,56.30
2019-03-26T04:02:25.842Z,56.25
2019-03-26T04:04:58.229Z,56.19
2019-03-26T04:07:30.661Z,56.20
2019-03-26T04:10:03.029Z,56.29
2019-03-26T04:12:35.569Z,56.37
2019-03-26T04:15:08.695Z,56.55
2019-03-26T04:17:41.281Z,56.54
2019-03-26T04:20:13.710Z,56.58
2019-03-26T04:22:46.112Z,56.54
2019-03-26T04:25:18.699Z,56.54
2019-03-26T04:27:51.199Z,56.55
2019-03-26T04:30:30.889Z,56.59
2019-03-26T04:33:03.408Z,56.66
2019-03-26T04:35:35.804Z,56.64
2019-03-26T04:38:08.235Z,56.65
2019-03-26T04:40:40.598Z,56.61
2019-03-26T04:43:13.416Z,56.57
2019-03-26T04:45:45.823Z,56.51
2019-03-26T04:48:18.338Z,56.40
2019-03-26T04:50:51.976Z,56.40
2019-03-26T04:53:24.641Z,56.44
2019-03-26T04:55:57.033Z,56.51
2019-03-26T04:58:29.455Z,56.55
2019-03-26T05:01:01.940Z,56.59
2019-03-26T05:03:34.659Z,56.59
2019-03-26T05:06:07.214Z,56.54
2019-03-26T05:08:39.650Z,56.50
2019-03-26T05:11:12.206Z,56.50
2019-03-26T05:13:46.047Z,56.51
2019-03-26T05:16:18.581Z,56.56
2019-03-26T05:18:51.012Z,56.54
2019-03-26T05:21:23.862Z,56.57
2019-03-26T05:23:56.284Z,56.57
2019-03-26T05:26:28.722Z,56.51
2019-03-26T05:29:01.213Z,56.45
2019-03-26T05:36:50.368Z,56.42
2019-03-26T05:39:12.163Z,56.50
2019-03-26T05:41:45.799Z,56.56
2019-03-26T05:44:18.807Z,56.60
2019-03-26T05:46:51.537Z,56.61
2019-03-26T05:49:24.117Z,56.66
2019-03-26T05:51:56.586Z,56.71
2019-03-26T05:54:29.315Z,56.82
2019-03-26T05:57:01.753Z,56.87
2019-03-26T05:59:34.306Z,56.99
2019-03-26T06:02:14.214Z,57.09
2019-03-26T06:04:40.945Z,57.19
2019-03-26T06:07:13.408Z,57.24
2019-03-26T06:09:45.868Z,57.30
2019-03-26T06:12:18.309Z,57.31
2019-03-26T06:14:50.966Z,57.29
2019-03-26T06:17:23.542Z,57.32
2019-03-26T06:19:56.023Z,57.34
2019-03-26T06:22:28.429Z,57.35
2019-03-26T06:25:01.267Z,57.41
2019-03-26T06:27:33.686Z,57.44
2019-03-26T06:30:07.319Z,57.43
2019-03-26T06:32:40.018Z,57.45
2019-03-26T06:35:12.432Z,57.42
2019-03-26T06:37:46.074Z,57.44
2019-03-26T06:40:18.843Z,57.45
2019-03-26T06:47:55.826Z,57.39
2019-03-26T06:50:28.718Z,57.40
2019-03-26T06:53:01.306Z,57.35
2019-03-26T06:55:33.755Z,57.30
2019-03-26T06:58:06.569Z,57.28
2019-03-26T07:00:38.995Z,57.29
2019-03-26T07:03:11.405Z,57.34
2019-03-26T07:05:43.834Z,57.33
2019-03-26T07:08:16.412Z,57.35
2019-03-26T07:10:49.342Z,57.38
2019-03-26T07:18:25.444Z,57.46
2019-03-26T07:20:57.851Z,57.49
2019-03-26T07:23:30.278Z,57.54
2019-03-26T07:26:02.884Z,57.56
2019-03-26T07:28:35.415Z,57.51
2019-03-26T07:31:08.097Z,57.40
2019-03-26T07:33:40.533Z,57.28
2019-03-26T07:36:12.997Z,57.15
2019-03-26T07:38:46.068Z,57.06
2019-03-26T07:41:18.527Z,56.94
2019-03-26T07:43:50.934Z,56.78
2019-03-26T07:46:23.475Z,56.74
2019-03-26T07:48:55.933Z,56.74
2019-03-26T07:51:28.666Z,56.69
2019-03-26T07:54:01.096Z,56.61
2019-03-26T07:56:33.631Z,56.53
2019-03-26T07:59:06.068Z,56.56
2019-03-26T08:01:38.558Z,56.59
2019-03-26T08:04:12.580Z,56.70
2019-03-26T08:06:46.669Z,56.69
2019-03-26T08:09:19.325Z,56.61
2019-03-26T08:11:51.789Z,56.60
2019-03-26T08:14:24.542Z,56.54
2019-03-26T08:16:57.101Z,56.51
2019-03-26T08:19:29.541Z,56.45
2019-03-26T08:22:02.135Z,56.47
2019-03-26T08:24:34.792Z,56.34
2019-03-26T08:27:07.353Z,56.20
2019-03-26T08:29:39.741Z,56.11
2019-03-26T08:32:12.370Z,56.02
2019-03-26T08:34:46.857Z,55.88
2019-03-26T08:37:19.449Z,55.79
2019-03-26T08:39:51.891Z,55.76
2019-03-26T08:47:29.279Z,55.64
2019-03-26T08:50:01.867Z,55.60
2019-03-26T08:52:34.474Z,55.60
2019-03-26T08:55:08.189Z,55.62
2019-03-26T08:57:40.749Z,55.60
2019-03-26T09:00:14.383Z,55.51
2019-03-26T09:02:46.824Z,55.30
2019-03-26T09:05:19.287Z,55.16
2019-03-26T09:07:52.187Z,55.03
2019-03-26T09:10:24.677Z,54.84
2019-03-26T09:12:57.163Z,54.67
2019-03-26T09:15:29.899Z,54.60
2019-03-26T09:18:02.384Z,54.56
2019-03-26T09:20:34.865Z,54.53
2019-03-26T09:23:07.894Z,54.45
2019-03-26T09:25:40.493Z,54.31
2019-03-26T09:28:12.965Z,54.18
2019-03-26T09:30:46.437Z,54.03
2019-03-26T09:33:19.295Z,53.88
2019-03-26T09:35:51.914Z,53.67
2019-03-26T09:38:37.935Z,53.50
2019-03-26T09:40:58.814Z,53.23
2019-03-26T09:43:31.271Z,52.98
2019-03-26T09:46:03.830Z,52.80
2019-03-26T09:48:36.644Z,52.73
2019-03-26T09:51:10.778Z,52.48
2019-03-26T09:53:43.750Z,52.01
2019-03-26T09:56:28.344Z,51.86
2019-03-26T09:58:51.086Z,51.79
2019-03-26T10:01:23.536Z,51.65
2019-03-26T10:03:55.935Z,51.47
2019-03-26T10:06:28.407Z,51.47
2019-03-26T10:09:30.392Z,51.18
2019-03-26T10:12:02.841Z,50.97
2019-03-26T10:14:35.289Z,50.77
2019-03-26T10:17:07.826Z,50.48
2019-03-26T10:19:40.289Z,50.34
2019-03-26T10:22:12.904Z,50.29
2019-03-26T10:24:47.040Z,50.27
2019-03-26T10:27:19.576Z,50.09
2019-03-26T10:29:52.045Z,49.50
2019-03-26T10:32:24.528Z,49.80
2019-03-26T10:34:57.066Z,49.93
2019-03-26T10:37:29.978Z,49.97
2019-03-26T10:40:04.540Z,49.93
2019-03-26T10:42:37.354Z,49.47
2019-03-26T10:45:10.897Z,48.95
2019-03-26T10:47:43.416Z,48.64
2019-03-26T10:50:16.269Z,48.57
2019-03-26T10:52:48.879Z,48.68
2019-03-26T10:55:21.354Z,48.64
2019-03-26T10:57:54.204Z,48.72
2019-03-26T11:00:27.013Z,48.64
2019-03-26T11:02:59.591Z,48.51
2019-03-26T11:05:32.122Z,48.56
2019-03-26T11:08:04.608Z,48.45
2019-03-26T11:10:37.109Z,48.48
2019-03-26T11:13:10.003Z,48.53
2019-03-26T11:15:42.450Z,48.49
2019-03-26T11:18:14.924Z,48.51
2019-03-26T11:20:47.378Z,48.53
2019-03-26T11:23:20.463Z,48.57
2019-03-26T11:25:52.967Z,48.54
2019-03-26T11:28:25.842Z,48.43
2019-03-26T11:30:58.327Z,48.32
2019-03-26T11:33:30.789Z,48.00
2019-03-26T11:36:03.274Z,48.27
2019-03-26T11:38:35.733Z,48.44
2019-03-26T11:41:08.157Z,48.31
2019-03-26T11:43:41.369Z,48.20
2019-03-26T11:46:13.851Z,48.04
2019-03-26T11:48:46.747Z,48.19
2019-03-26T11:51:19.405Z,48.41
2019-03-26T11:53:51.925Z,48.32
2019-03-26T11:56:24.414Z,48.15
2019-03-26T11:58:57.573Z,47.89
2019-03-26T12:01:30.692Z,47.87
2019-03-26T12:04:04.740Z,47.69
2019-03-26T12:06:37.217Z,47.60
2019-03-26T12:09:10.407Z,47.64
2019-03-26T12:11:43.084Z,47.37
2019-03-26T12:14:16.250Z,47.39
2019-03-26T12:16:48.921Z,47.22
2019-03-26T12:19:22.085Z,47.24
2019-03-26T12:21:54.498Z,47.30
2019-03-26T12:24:26.971Z,47.20
2019-03-26T12:26:59.440Z,47.13
2019-03-26T12:29:32.623Z,46.96
2019-03-26T12:32:05.328Z,46.83
2019-03-26T12:34:38.040Z,46.99
2019-03-26T12:37:10.508Z,46.88
2019-03-26T12:39:58.617Z,46.36
2019-03-26T12:42:21.565Z,46.18
2019-03-26T12:44:54.871Z,46.06
2019-03-26T12:47:27.475Z,45.98
2019-03-26T12:50:00.651Z,45.90
2019-03-26T12:52:33.313Z,45.70
2019-03-26T12:55:05.935Z,45.54
2019-03-26T12:57:38.502Z,45.67
2019-03-26T13:00:11.424Z,45.53
2019-03-26T13:02:44.360Z,45.49
2019-03-26T13:05:16.898Z,45.41
2019-03-26T13:07:49.784Z,45.13
2019-03-26T13:15:01.480Z,45.18
2019-03-26T13:17:33.919Z,45.19
2019-03-26T13:20:07.487Z,45.18
2019-03-26T13:22:40.270Z,44.96
2019-03-26T13:25:12.828Z,45.02
2019-03-26T13:27:45.406Z,45.13
2019-03-26T13:30:19.709Z,44.85
2019-03-26T13:32:52.172Z,44.78
2019-03-26T13:35:24.707Z,44.51
2019-03-26T13:37:57.908Z,44.59
2019-03-26T13:40:30.344Z,44.50
2019-03-26T13:43:02.952Z,44.34
2019-03-26T13:45:35.392Z,43.93
2019-03-26T13:48:07.864Z,43.98
2019-03-26T13:50:40.415Z,43.66
2019-03-26T13:53:13.561Z,43.67
2019-03-26T13:55:47.201Z,44.03
2019-03-26T13:58:19.650Z,43.96
2019-03-26T14:00:52.140Z,43.92
2019-03-26T14:03:24.606Z,43.90
2019-03-26T14:05:57.103Z,43.98
2019-03-26T14:08:30.284Z,43.97
2019-03-26T14:11:02.721Z,43.84
2019-03-26T14:13:35.330Z,43.72
2019-03-26T14:16:07.760Z,43.55
2019-03-26T14:18:40.265Z,43.38
2019-03-26T14:21:12.925Z,43.26
2019-03-26T14:23:46.058Z,43.08
2019-03-26T14:26:18.499Z,42.93
2019-03-26T14:28:51.356Z,42.75
2019-03-26T14:31:23.901Z,42.99
2019-03-26T14:33:56.423Z,43.03
2019-03-26T14:36:28.977Z,42.73
2019-03-26T14:39:01.492Z,42.77
2019-03-26T14:41:34.084Z,42.70
2019-03-26T14:44:06.707Z,42.63
2019-03-26T14:46:39.799Z,42.38
2019-03-26T14:49:12.244Z,42.52
2019-03-26T14:51:44.877Z,42.36
2019-03-26T14:54:17.414Z,42.14
2019-03-26T14:56:49.994Z,42.04
2019-03-26T14:59:22.489Z,41.86
2019-03-26T15:01:55.333Z,42.02
2019-03-26T15:04:27.800Z,42.29
2019-03-26T15:07:00.453Z,42.38
2019-03-26T15:09:32.940Z,42.33
2019-03-26T15:12:05.529Z,42.25
2019-03-26T15:14:38.186Z,42.14
2019-03-26T15:17:11.120Z,41.92
2019-03-26T15:19:43.568Z,41.78
2019-03-26T15:22:16.058Z,41.63
2019-03-26T15:24:48.642Z,41.70
2019-03-26T15:27:21.183Z,41.81
2019-03-26T15:29:53.666Z,41.76
2019-03-26T15:32:27.161Z,41.59
2019-03-26T15:34:59.641Z,41.73
2019-03-26T15:37:32.956Z,41.61
2019-03-26T15:40:05.914Z,41.62
2019-03-26T15:42:38.405Z,41.63
2019-03-26T15:45:11.368Z,41.46
2019-03-26T15:47:44.486Z,41.42
2019-03-26T15:50:36.925Z,41.34
2019-03-26T15:53:11.706Z,41.31
2019-03-26T15:55:44.636Z,41.48
2019-03-26T15:58:17.198Z,41.34
2019-03-26T16:00:49.666Z,41.43
2019-03-26T16:03:22.958Z,41.36
2019-03-26T16:05:55.432Z,41.45
2019-03-26T16:08:28.053Z,41.44
2019-03-26T16:11:00.614Z,41.42
2019-03-26T16:13:35.743Z,41.36
2019-03-26T16:16:07.386Z,41.43
2019-03-26T16:18:40.598Z,41.45
2019-03-26T16:21:13.183Z,41.36
2019-03-26T16:23:45.695Z,41.34
2019-03-26T16:26:20.616Z,41.34
2019-03-26T16:28:52.403Z,41.23
2019-03-26T16:31:24.918Z,41.23
2019-03-26T16:33:58.192Z,41.17
2019-03-26T16:36:30.818Z,41.14
2019-03-26T16:39:04.637Z,41.08
2019-03-26T16:41:48.369Z,41.07
2019-03-26T16:44:11.495Z,40.99
2019-03-26T16:46:44.122Z,40.93
2019-03-26T16:49:17.315Z,40.88
2019-03-26T16:51:50.734Z,40.85
2019-03-26T16:54:23.262Z,40.76
2019-03-26T16:56:56.486Z,40.72
2019-03-26T16:59:29.245Z,40.70
2019-03-26T17:02:01.978Z,40.70
2019-03-26T17:04:35.558Z,40.77
2019-03-26T17:07:08.077Z,40.78
2019-03-26T17:09:40.563Z,40.79
2019-03-26T17:12:13.105Z,40.84
2019-03-26T17:14:45.717Z,40.89
2019-03-26T17:17:18.176Z,40.96
2019-03-26T17:19:51.401Z,41.07
2019-03-26T17:22:24.047Z,41.11
2019-03-26T17:24:56.561Z,41.09
2019-03-26T17:27:29.326Z,41.07
2019-03-26T17:30:02.132Z,41.09
2019-03-26T17:32:34.679Z,41.11
2019-03-26T17:35:09.228Z,41.13
2019-03-26T17:37:41.674Z,41.26
2019-03-26T17:40:14.155Z,41.42
2019-03-26T17:42:46.628Z,41.54
2019-03-26T17:45:19.155Z,41.58
2019-03-26T17:47:51.661Z,41.66
2019-03-26T17:50:24.841Z,41.74
2019-03-26T17:52:57.412Z,41.85
2019-03-26T17:55:30.303Z,41.98
2019-03-26T17:58:02.841Z,42.09
2019-03-26T18:00:48.773Z,42.18
2019-03-26T18:03:26.703Z,42.25
2019-03-26T18:05:56.147Z,42.33
2019-03-26T18:08:28.716Z,42.31
2019-03-26T18:11:01.331Z,42.31
2019-03-26T18:13:33.803Z,42.33
2019-03-26T18:16:06.633Z,42.33
2019-03-26T18:18:39.103Z,42.37
2019-03-26T18:21:12.243Z,42.37
2019-03-26T18:23:44.818Z,42.42
2019-03-26T18:26:17.348Z,42.46
2019-03-26T18:28:49.907Z,42.45
2019-03-26T18:31:22.576Z,42.43
2019-03-26T18:33:55.047Z,42.41
2019-03-26T18:36:28.373Z,42.35
2019-03-26T18:39:00.927Z,42.34
2019-03-26T18:41:33.626Z,42.54
2019-03-26T18:44:06.157Z,42.80
2019-03-26T18:46:38.639Z,43.02
2019-03-26T18:49:11.189Z,43.21
2019-03-26T18:51:43.785Z,43.34
2019-03-26T18:54:16.941Z,43.47
2019-03-26T18:56:49.630Z,43.63
2019-03-26T18:59:22.265Z,43.78
2019-03-26T19:01:54.829Z,43.86
2019-03-26T19:04:27.444Z,43.91
2019-03-26T19:07:00.041Z,43.94
2019-03-26T19:09:34.652Z,43.93
2019-03-26T19:12:07.240Z,43.96
2019-03-26T19:14:39.976Z,44.00
2019-03-26T19:17:12.754Z,44.03
2019-03-26T19:19:48.348Z,44.08
2019-03-26T19:22:20.872Z,44.11
2019-03-26T19:24:53.545Z,44.12
2019-03-26T19:27:26.077Z,44.13
2019-03-26T19:29:58.640Z,44.21
2019-03-26T19:32:31.246Z,44.27
2019-03-26T19:35:03.827Z,44.28
2019-03-26T19:37:36.349Z,44.38
2019-03-26T19:40:10.024Z,44.54
2019-03-26T19:42:42.534Z,44.63
2019-03-26T19:45:15.272Z,44.70
2019-03-26T19:47:48.859Z,44.72
2019-03-26T19:50:21.719Z,44.79
2019-03-26T19:52:54.362Z,44.90
2019-03-26T19:55:27.011Z,45.04
2019-03-26T19:57:59.544Z,45.17
2019-03-26T20:00:32.102Z,45.29
2019-03-26T20:03:04.744Z,45.37
2019-03-26T20:05:37.310Z,45.52
2019-03-26T20:08:10.234Z,45.63
2019-03-26T20:10:43.098Z,45.71
2019-03-26T20:13:24.148Z,45.68
2019-03-26T20:15:50.030Z,45.66
2019-03-26T20:18:25.289Z,45.67
2019-03-26T20:20:57.908Z,45.66
2019-03-26T20:23:30.372Z,45.61
2019-03-26T20:26:03.326Z,45.59
2019-03-26T20:28:35.882Z,45.60
2019-03-26T20:31:08.431Z,45.67
2019-03-26T20:33:42.557Z,45.67
2019-03-26T20:36:15.474Z,45.65
2019-03-26T20:38:51.422Z,45.64
2019-03-26T20:41:23.526Z,45.62
2019-03-26T20:43:56.330Z,45.54
2019-03-26T20:46:29.003Z,45.46
2019-03-26T20:49:01.525Z,45.40
2019-03-26T20:51:34.222Z,45.41
2019-03-26T20:54:06.732Z,45.53
2019-03-26T20:56:40.945Z,45.66
2019-03-26T20:59:14.316Z,45.81
2019-03-26T21:01:46.882Z,45.97
2019-03-26T21:04:19.470Z,46.08
2019-03-26T21:06:52.018Z,46.10
2019-03-26T21:09:24.492Z,46.14
2019-03-26T21:11:56.985Z,46.15
2019-03-26T21:14:29.670Z,46.24
2019-03-26T21:17:02.448Z,46.25
2019-03-26T21:19:35.230Z,46.37
2019-03-26T21:22:07.874Z,46.46
2019-03-26T21:24:40.325Z,46.53
2019-03-26T21:27:12.803Z,46.62
2019-03-26T21:29:45.475Z,46.70
2019-03-26T21:32:17.913Z,46.79
2019-03-26T21:34:50.483Z,46.86
2019-03-26T21:37:23.311Z,46.92
2019-03-26T21:39:55.940Z,47.07
2019-03-26T21:42:28.372Z,47.16
2019-03-26T21:45:00.979Z,47.24
2019-03-26T21:47:33.656Z,47.32
2019-03-26T21:50:07.444Z,47.38
2019-03-26T21:52:40.058Z,47.40
2019-03-26T21:55:13.530Z,47.45
2019-03-26T21:57:46.210Z,47.50
2019-03-26T22:00:19.326Z,47.51
2019-03-26T22:02:52.037Z,47.56
2019-03-26T22:05:24.573Z,47.58
2019-03-26T22:07:57.021Z,47.61
2019-03-26T22:10:29.498Z,47.64
2019-03-26T22:13:02.018Z,47.66
2019-03-26T22:15:34.726Z,47.75
2019-03-26T22:18:07.212Z,47.76
2019-03-26T22:20:39.758Z,47.75
2019-03-26T22:23:12.323Z,47.75
2019-03-26T22:25:44.995Z,47.74
2019-03-26T22:28:17.497Z,47.77
2019-03-26T22:30:50.130Z,47.79
2019-03-26T22:33:22.570Z,47.86
2019-03-26T22:35:56.201Z,47.92
2019-03-26T22:38:28.848Z,48.01
2019-03-26T22:41:01.385Z,48.14
2019-03-26T22:43:33.924Z,48.25
2019-03-26T22:46:06.678Z,48.30
2019-03-26T22:48:39.137Z,48.41
2019-03-26T22:51:11.781Z,48.52
2019-03-26T22:53:44.639Z,48.51
2019-03-26T22:56:17.174Z,48.54
2019-03-26T22:58:49.615Z,48.52
2019-03-26T23:01:22.171Z,48.51
2019-03-26T23:03:54.563Z,48.50
2019-03-26T23:06:27.110Z,48.54
2019-03-26T23:08:59.659Z,48.65
2019-03-26T23:11:32.329Z,48.75
2019-03-26T23:14:04.808Z,48.81
2019-03-26T23:16:37.493Z,48.88
2019-03-26T23:19:10.254Z,48.92
2019-03-26T23:21:42.719Z,48.99
2019-03-26T23:24:15.227Z,48.97
2019-03-26T23:26:47.708Z,48.94
2019-03-26T23:29:20.477Z,48.88
2019-03-26T23:31:54.083Z,48.81
2019-03-26T23:34:26.742Z,48.75
2019-03-26T23:36:59.259Z,48.67
2019-03-26T23:39:31.754Z,48.60
2019-03-26T23:42:04.222Z,48.60
2019-03-26T23:44:36.724Z,48.63
2019-03-26T23:47:09.161Z,48.64
2019-03-26T23:49:41.716Z,48.70
2019-03-26T23:52:14.793Z,48.80
2019-03-26T23:54:47.283Z,48.95
2019-03-26T23:57:19.634Z,49.12
2019-03-26T23:59:52.057Z,49.25
